Time;durP1;ratioP1;P1;durP2;ratioP2;P2;SDS_P1;SDS_P2;PMS_P1;PMS_P2;Temp;Humidity;BMP_temperature;BMP_pressure;BME280_temperature;BME280_humidity;BME280_pressure;Samples;Min_cycle;Max_cycle;Signal;HPM_P1;HPM_P2
2022/08/01 00:02:01;;;;;;;1.33;0.75;;;12.20;99.90;;;;;;5075039;28;20493;-79
2022/08/01 00:04:28;;;;;;;0.68;0.52;;;12.20;99.90;;;;;;5075770;28;20093;-79
2022/08/01 00:06:55;;;;;;;1.27;0.60;;;12.30;99.90;;;;;;5075166;28;20025;-80
2022/08/01 00:09:23;;;;;;;2.88;0.85;;;12.40;99.90;;;;;;5075184;28;20063;-81
2022/08/01 00:11:50;;;;;;;4.05;0.70;;;12.40;99.90;;;;;;5075242;28;20025;-81
2022/08/01 00:14:17;;;;;;;0.82;0.40;;;12.50;99.90;;;;;;5074859;28;20024;-81
2022/08/01 00:16:45;;;;;;;0.65;0.50;;;12.50;99.90;;;;;;5074826;28;20042;-82
2022/08/01 00:19:12;;;;;;;0.90;0.70;;;12.60;99.90;;;;;;5073720;28;20032;-78
2022/08/01 00:21:39;;;;;;;1.27;0.50;;;12.70;99.90;;;;;;5074839;28;20108;-74
2022/08/01 00:24:07;;;;;;;0.63;0.47;;;12.80;99.90;;;;;;5074740;28;20543;-79
2022/08/01 00:26:34;;;;;;;3.63;0.77;;;12.90;99.90;;;;;;5074664;28;20035;-81
2022/08/01 00:29:02;;;;;;;2.28;0.47;;;13.10;99.90;;;;;;5070442;28;20108;-77
2022/08/01 00:31:29;;;;;;;0.75;0.50;;;13.20;99.90;;;;;;5054077;28;20104;-77
2022/08/01 00:33:57;;;;;;;0.73;0.57;;;13.30;99.90;;;;;;5054117;28;20474;-79
2022/08/01 00:36:24;;;;;;;0.30;0.30;;;13.50;99.90;;;;;;5052699;28;20029;-78
2022/08/01 00:38:52;;;;;;;3.42;0.40;;;13.50;99.90;;;;;;5053949;28;20082;-73
2022/08/01 00:41:19;;;;;;;1.23;0.40;;;13.50;99.90;;;;;;5053996;28;20025;-77
2022/08/01 00:43:46;;;;;;;0.93;0.40;;;13.50;99.90;;;;;;5053735;28;20394;-78
2022/08/01 00:46:16;;;;;;;0.40;0.40;;;13.50;99.90;;;;;;5053887;28;20020;-78
2022/08/01 00:48:44;;;;;;;0.93;0.38;;;13.60;99.90;;;;;;5051818;28;20044;-78
2022/08/01 00:51:11;;;;;;;0.63;0.55;;;13.60;99.90;;;;;;5053856;28;20078;-78
2022/08/01 00:53:40;;;;;;;0.38;0.38;;;13.60;99.90;;;;;;5053669;28;20031;-78
2022/08/01 00:56:08;;;;;;;0.63;0.28;;;13.60;99.90;;;;;;5053426;28;20082;-77
2022/08/01 00:58:35;;;;;;;1.15;0.30;;;13.60;99.90;;;;;;5053666;28;20029;-77
2022/08/01 01:01:02;;;;;;;0.40;0.30;;;13.70;99.90;;;;;;5053697;28;20041;-78
2022/08/01 01:03:31;;;;;;;0.35;0.35;;;13.80;99.90;;;;;;5053494;28;20045;-74
2022/08/01 01:06:07;;;;;;;0.43;0.35;;;13.80;99.90;;;;;;5053562;28;20108;-78
2022/08/01 01:09:01;;;;;;;1.30;0.57;;;13.90;99.90;;;;;;5053513;28;20363;-74
2022/08/01 01:12:07;;;;;;;1.75;0.95;;;13.90;99.90;;;;;;5051612;28;20044;-77
2022/08/01 01:15:05;;;;;;;1.45;0.73;;;13.90;99.90;;;;;;5052547;28;20017;-77
2022/08/01 01:18:02;;;;;;;1.48;0.90;;;14.00;99.90;;;;;;5052451;28;20064;-76
2022/08/01 01:20:31;;;;;;;;;;;14.10;99.90;;;;;;5052330;28;20056;-78
2022/08/01 01:23:13;;;;;;;1.65;0.88;;;14.10;99.90;;;;;;5051833;28;19904;-78
2022/08/01 01:26:21;;;;;;;0.50;0.40;;;14.10;99.90;;;;;;5050437;28;20021;-74
2022/08/01 01:28:57;;;;;;;1.23;0.40;;;14.20;99.90;;;;;;5042848;28;20535;-79
2022/08/01 01:31:27;;;;;;;0.90;0.60;;;14.20;99.90;;;;;;5051118;28;20098;-79
2022/08/01 01:33:56;;;;;;;0.60;0.40;;;14.30;99.90;;;;;;5053584;28;20017;-78
2022/08/01 01:36:25;;;;;;;1.92;0.88;;;14.40;99.90;;;;;;5050581;28;20029;-76
2022/08/01 01:38:55;;;;;;;1.00;0.55;;;14.40;99.90;;;;;;5053010;28;20009;-78
2022/08/01 01:41:24;;;;;;;0.30;0.30;;;14.40;99.90;;;;;;5050610;28;20056;-77
2022/08/01 01:43:52;;;;;;;1.23;0.45;;;14.50;99.90;;;;;;5053044;28;20082;-78
2022/08/01 01:46:24;;;;;;;1.50;0.52;;;14.50;99.90;;;;;;5052708;28;20486;-78
2022/08/01 01:48:52;;;;;;;0.28;0.28;;;14.50;99.90;;;;;;5052948;28;20028;-77
2022/08/01 01:51:21;;;;;;;0.65;0.40;;;14.60;99.90;;;;;;5052824;28;20029;-79
2022/08/01 01:53:50;;;;;;;0.75;0.30;;;14.60;99.90;;;;;;5052814;28;20413;-79
2022/08/01 01:56:19;;;;;;;0.47;0.30;;;14.60;99.90;;;;;;5052539;28;20459;-76
2022/08/01 01:58:49;;;;;;;0.85;0.60;;;14.60;99.90;;;;;;5052707;28;20021;-79
2022/08/01 02:01:18;;;;;;;3.70;0.40;;;14.50;99.90;;;;;;5052783;28;20016;-74
2022/08/01 02:03:46;;;;;;;0.38;0.38;;;14.50;99.90;;;;;;5052650;28;20097;-77
2022/08/01 02:06:16;;;;;;;1.30;0.52;;;14.40;99.90;;;;;;5051340;28;20048;-79
2022/08/01 02:08:45;;;;;;;1.30;0.40;;;14.40;99.90;;;;;;5050336;28;20512;-78
2022/08/01 02:11:18;;;;;;;0.30;0.30;;;14.40;99.90;;;;;;5052629;28;20024;-79
2022/08/01 02:13:58;;;;;;;1.77;0.40;;;14.40;99.90;;;;;;5050328;28;20048;-73
2022/08/01 02:16:29;;;;;;;0.50;0.30;;;14.40;99.90;;;;;;5050548;28;20056;-78
2022/08/01 02:18:57;;;;;;;0.52;0.40;;;14.40;99.90;;;;;;5052646;28;20025;-72
2022/08/01 02:21:46;;;;;;;0.75;0.40;;;14.40;99.90;;;;;;5052275;28;20021;-77
2022/08/01 02:24:42;;;;;;;1.17;0.52;;;14.50;99.90;;;;;;5052325;28;20017;-75
2022/08/01 02:27:16;;;;;;;0.52;0.40;;;14.50;99.90;;;;;;5051085;28;20352;-78
2022/08/01 02:29:59;;;;;;;0.98;0.50;;;14.60;99.90;;;;;;5050264;28;20451;-79
2022/08/01 02:32:46;;;;;;;0.60;0.30;;;14.70;99.90;;;;;;5050697;28;20481;-73
2022/08/01 02:35:35;;;;;;;0.75;0.40;;;14.80;99.90;;;;;;5051444;28;20383;-78
2022/08/01 02:38:06;;;;;;;0.47;0.30;;;14.80;99.90;;;;;;5049051;28;20040;-78
2022/08/01 02:40:37;;;;;;;2.75;0.40;;;14.90;99.90;;;;;;5051885;28;20092;-75
2022/08/01 02:43:07;;;;;;;0.55;0.40;;;14.90;99.90;;;;;;5054712;28;20489;-78
2022/08/01 02:45:39;;;;;;;0.82;0.50;;;14.90;99.90;;;;;;5054909;28;20021;-79
2022/08/01 02:48:12;;;;;;;0.68;0.50;;;15.00;99.90;;;;;;5049692;28;20090;-78
2022/08/01 02:50:44;;;;;;;1.40;1.10;;;15.00;99.90;;;;;;5053987;28;20036;-77
2022/08/01 02:53:16;;;;;;;7.00;0.65;;;15.00;99.90;;;;;;5052686;28;20099;-78
2022/08/01 02:55:47;;;;;;;1.08;0.60;;;15.00;99.90;;;;;;5053359;28;20009;-78
2022/08/01 02:58:16;;;;;;;0.73;0.40;;;15.00;99.90;;;;;;5054107;28;20061;-79
2022/08/01 03:00:47;;;;;;;1.98;0.45;;;15.10;99.90;;;;;;5051130;28;20457;-73
2022/08/01 03:03:15;;;;;;;0.22;0.22;;;15.10;99.90;;;;;;5055077;28;20048;-79
2022/08/01 03:05:44;;;;;;;0.73;0.60;;;15.20;99.90;;;;;;5053502;28;20075;-72
2022/08/01 03:08:13;;;;;;;1.13;0.40;;;15.30;99.90;;;;;;5055435;28;20017;-77
2022/08/01 03:10:44;;;;;;;0.35;0.30;;;15.40;99.90;;;;;;5054559;28;20070;-72
2022/08/01 03:13:17;;;;;;;0.88;0.30;;;15.50;99.90;;;;;;5054521;28;20453;-78
2022/08/01 03:15:45;;;;;;;2.42;0.60;;;15.60;99.90;;;;;;5054753;28;20052;-79
2022/08/01 03:18:14;;;;;;;0.22;0.22;;;15.70;99.90;;;;;;5055204;28;20032;-77
2022/08/01 03:20:43;;;;;;;0.35;0.35;;;15.70;99.90;;;;;;5055557;28;20105;-79
2022/08/01 03:23:12;;;;;;;0.65;0.30;;;15.80;99.90;;;;;;5055431;28;20029;-72
2022/08/01 03:25:43;;;;;;;0.68;0.40;;;15.90;99.90;;;;;;5055307;28;20040;-79
2022/08/01 03:28:14;;;;;;;3.65;0.40;;;15.90;99.90;;;;;;5055326;28;20428;-78
2022/08/01 03:30:42;;;;;;;0.85;0.45;;;15.90;99.90;;;;;;5055472;28;20032;-72
2022/08/01 03:33:11;;;;;;;0.38;0.32;;;15.90;99.90;;;;;;5055245;28;20017;-78
2022/08/01 03:35:47;;;;;;;1.08;0.43;;;15.90;99.90;;;;;;5053771;28;20115;-72
2022/08/01 03:38:19;;;;;;;0.70;0.28;;;15.90;99.90;;;;;;5055271;28;20036;-73
2022/08/01 03:41:15;;;;;;;1.92;0.45;;;15.90;99.90;;;;;;5053319;28;20017;-78
2022/08/01 03:43:52;;;;;;;0.40;0.20;;;16.00;99.90;;;;;;5052764;28;20027;-79
2022/08/01 03:46:26;;;;;;;1.75;0.30;;;16.00;99.90;;;;;;5054920;28;20025;-73
2022/08/01 03:48:58;;;;;;;1.60;0.35;;;16.00;99.90;;;;;;5055084;28;20088;-77
2022/08/01 03:51:27;;;;;;;0.40;0.30;;;16.10;99.90;;;;;;5054879;28;20044;-72
2022/08/01 03:53:56;;;;;;;0.70;0.30;;;16.10;99.90;;;;;;5054715;28;20413;-73
2022/08/01 03:56:25;;;;;;;3.35;0.30;;;16.10;99.90;;;;;;5052259;28;20111;-72
2022/08/01 03:58:53;;;;;;;1.58;0.52;;;16.10;99.90;;;;;;5054802;28;20429;-79
2022/08/01 04:01:21;;;;;;;2.90;0.57;;;16.10;99.90;;;;;;5054796;28;20351;-72
2022/08/01 04:03:49;;;;;;;0.57;0.35;;;16.10;99.90;;;;;;5054530;28;20045;-80
2022/08/01 04:06:17;;;;;;;0.57;0.28;;;16.10;99.90;;;;;;5054618;28;20032;-77
2022/08/01 04:08:55;;;;;;;0.73;0.30;;;16.10;99.90;;;;;;5054782;28;20100;-73
2022/08/01 04:11:27;;;;;;;0.38;0.20;;;16.10;99.90;;;;;;5052061;28;20025;-72
2022/08/01 04:13:55;;;;;;;0.40;0.30;;;16.10;99.90;;;;;;5054551;28;20032;-79
2022/08/01 04:16:23;;;;;;;0.82;0.40;;;16.10;99.90;;;;;;5051637;28;20039;-73
2022/08/01 04:18:50;;;;;;;1.05;0.20;;;16.10;99.90;;;;;;5054381;28;20389;-72
2022/08/01 04:21:27;;;;;;;0.45;0.30;;;16.00;99.90;;;;;;5054401;28;20025;-73
2022/08/01 04:23:59;;;;;;;0.40;0.20;;;16.00;99.90;;;;;;5054465;28;20039;-81
2022/08/01 04:26:28;;;;;;;0.50;0.30;;;16.00;99.90;;;;;;5052462;28;20017;-78
2022/08/01 04:28:56;;;;;;;1.08;0.40;;;16.00;99.90;;;;;;5054289;28;20025;-73
2022/08/01 04:31:26;;;;;;;0.85;0.47;;;16.00;99.90;;;;;;5054184;28;20096;-73
2022/08/01 04:33:56;;;;;;;0.30;0.25;;;16.00;99.90;;;;;;5054271;28;20024;-72
2022/08/01 04:36:25;;;;;;;0.80;0.30;;;15.90;99.90;;;;;;5050898;28;20021;-79
2022/08/01 04:38:59;;;;;;;3.55;0.25;;;15.90;99.90;;;;;;5053760;28;20032;-74
2022/08/01 04:41:28;;;;;;;0.30;0.30;;;15.90;99.90;;;;;;5053619;28;20021;-75
2022/08/01 04:43:55;;;;;;;0.45;0.22;;;15.90;99.90;;;;;;5053672;28;20051;-77
2022/08/01 04:46:23;;;;;;;0.60;0.20;;;15.90;99.90;;;;;;5052966;28;20039;-75
2022/08/01 04:48:51;;;;;;;1.33;0.30;;;15.90;99.90;;;;;;5053392;28;20021;-74
2022/08/01 04:51:21;;;;;;;0.85;0.30;;;15.90;99.90;;;;;;5053332;28;20051;-78
2022/08/01 04:53:50;;;;;;;0.20;0.20;;;15.90;99.90;;;;;;5051670;28;20078;-74
2022/08/01 04:56:20;;;;;;;0.60;0.40;;;15.90;99.90;;;;;;5052924;28;20033;-78
2022/08/01 04:59:39;;;;;;;0.50;0.30;;;15.90;99.90;;;;;;5051356;28;20047;-77
2022/08/01 05:01:35;;;;;;;0.32;0.20;;;15.90;99.90;;;;;;5053121;28;20083;-79
2022/08/01 05:04:02;;;;;;;0.28;0.20;;;15.90;99.90;;;;;;5052262;28;20073;-78
2022/08/01 05:06:30;;;;;;;1.92;0.20;;;15.80;99.90;;;;;;5052910;28;20529;-77
2022/08/01 05:08:58;;;;;;;0.45;0.30;;;15.80;99.90;;;;;;5052789;28;20017;-77
2022/08/01 05:11:25;;;;;;;0.55;0.30;;;15.70;99.90;;;;;;5051761;28;20136;-75
2022/08/01 05:13:52;;;;;;;0.50;0.30;;;15.70;99.90;;;;;;5053264;28;20032;-79
2022/08/01 05:16:19;;;;;;;2.80;0.30;;;15.60;99.90;;;;;;5053125;28;20053;-74
2022/08/01 05:18:47;;;;;;;0.63;0.40;;;15.60;99.90;;;;;;5053305;28;20053;-73
2022/08/01 05:21:14;;;;;;;0.50;0.50;;;15.60;99.90;;;;;;5053184;28;20013;-73
2022/08/01 05:23:42;;;;;;;0.47;0.47;;;15.60;99.90;;;;;;5050616;28;20028;-75
2022/08/01 05:26:10;;;;;;;0.68;0.20;;;15.50;99.90;;;;;;5049723;28;20024;-73
2022/08/01 05:28:38;;;;;;;0.20;0.20;;;15.50;99.90;;;;;;5052834;28;20013;-73
2022/08/01 05:31:05;;;;;;;0.47;0.30;;;15.50;99.90;;;;;;5052787;28;20099;-74
2022/08/01 05:33:32;;;;;;;0.43;0.30;;;15.50;99.90;;;;;;5052856;28;20024;-74
2022/08/01 05:36:00;;;;;;;0.30;0.30;;;15.40;99.90;;;;;;5051813;28;20043;-78
2022/08/01 05:38:27;;;;;;;0.40;0.30;;;15.40;99.90;;;;;;5052952;28;20052;-78
2022/08/01 05:40:54;;;;;;;1.00;0.22;;;15.40;99.90;;;;;;5051573;28;20019;-75
2022/08/01 05:43:21;;;;;;;0.20;0.20;;;15.40;99.90;;;;;;5050117;28;20028;-79
2022/08/01 05:45:49;;;;;;;0.47;0.22;;;15.40;99.90;;;;;;5052457;28;20095;-72
2022/08/01 05:48:16;;;;;;;0.30;0.28;;;15.30;99.90;;;;;;5052819;28;20565;-73
2022/08/01 05:50:43;;;;;;;0.20;0.20;;;15.30;99.90;;;;;;5052636;28;20017;-73
2022/08/01 05:53:11;;;;;;;0.80;0.30;;;15.30;99.90;;;;;;5052686;28;20429;-79
2022/08/01 05:55:38;;;;;;;1.00;0.20;;;15.30;99.90;;;;;;5052465;28;20040;-76
2022/08/01 05:58:05;;;;;;;1.85;0.20;;;15.30;99.90;;;;;;5052433;28;20432;-76
2022/08/01 06:00:32;;;;;;;0.95;0.45;;;15.30;99.90;;;;;;5052504;28;20013;-74
2022/08/01 06:03:00;;;;;;;0.32;0.30;;;15.20;99.90;;;;;;5052376;28;20037;-79
2022/08/01 06:05:27;;;;;;;0.22;0.20;;;15.20;99.90;;;;;;5052513;28;20108;-75
2022/08/01 06:07:54;;;;;;;0.30;0.20;;;15.20;99.90;;;;;;5052464;28;20027;-77
2022/08/01 06:10:22;;;;;;;0.28;0.20;;;15.20;99.90;;;;;;5047967;28;20025;-73
2022/08/01 06:12:49;;;;;;;2.30;0.25;;;15.10;99.90;;;;;;5050390;28;20017;-74
2022/08/01 06:15:16;;;;;;;1.30;0.40;;;15.00;99.90;;;;;;5052419;28;20035;-77
2022/08/01 06:17:44;;;;;;;1.23;0.43;;;15.00;99.90;;;;;;5056288;28;20478;-77
2022/08/01 06:20:11;;;;;;;0.45;0.28;;;14.90;99.90;;;;;;5056272;28;20021;-79
2022/08/01 06:22:39;;;;;;;0.30;0.20;;;14.90;99.90;;;;;;5056267;28;20453;-76
2022/08/01 06:25:07;;;;;;;0.63;0.30;;;14.80;99.90;;;;;;5056115;28;20018;-73
2022/08/01 06:27:38;;;;;;;0.20;0.20;;;14.80;99.90;;;;;;5058879;28;20463;-78
2022/08/01 06:30:07;;;;;;;0.63;0.40;;;14.80;99.90;;;;;;5058168;28;20096;-78
2022/08/01 06:32:34;;;;;;;0.77;0.45;;;14.80;99.90;;;;;;5053951;28;20052;-77
2022/08/01 06:35:02;;;;;;;1.30;0.55;;;14.70;99.90;;;;;;5053060;28;20105;-78
2022/08/01 06:37:31;;;;;;;1.50;0.57;;;14.60;99.90;;;;;;5053852;28;20025;-78
2022/08/01 06:40:05;;;;;;;0.68;0.40;;;14.60;99.90;;;;;;5053786;28;20017;-78
2022/08/01 06:42:36;;;;;;;0.43;0.30;;;14.60;99.90;;;;;;5054087;28;20608;-77
2022/08/01 06:45:11;;;;;;;0.70;0.60;;;14.50;99.90;;;;;;5054498;28;20024;-75
2022/08/01 06:47:40;;;;;;;4.95;0.60;;;14.40;99.90;;;;;;5056019;28;20358;-77
2022/08/01 06:50:09;;;;;;;0.80;0.40;;;14.40;99.90;;;;;;5054646;28;20103;-74
2022/08/01 06:52:37;;;;;;;2.17;0.30;;;14.40;99.90;;;;;;5054087;28;20048;-76
2022/08/01 06:55:05;;;;;;;0.57;0.38;;;14.30;99.90;;;;;;5055262;28;20048;-77
2022/08/01 06:57:33;;;;;;;0.60;0.40;;;14.20;99.90;;;;;;5055518;28;20033;-73
2022/08/01 07:00:12;;;;;;;0.22;0.20;;;14.10;99.90;;;;;;5055568;28;20539;-73
2022/08/01 07:02:40;;;;;;;0.60;0.40;;;14.10;99.90;;;;;;5055525;28;20040;-72
2022/08/01 07:05:09;;;;;;;0.68;0.40;;;14.10;99.90;;;;;;5055053;28;20024;-78
2022/08/01 07:07:36;;;;;;;0.68;0.40;;;14.00;99.90;;;;;;5055427;28;20021;-77
2022/08/01 07:10:04;;;;;;;1.08;0.50;;;13.90;99.90;;;;;;5055188;28;20017;-78
2022/08/01 07:12:33;;;;;;;1.77;0.40;;;13.80;99.90;;;;;;5055118;28;20381;-78
2022/08/01 07:15:00;;;;;;;2.38;0.47;;;13.80;99.90;;;;;;5054796;28;20017;-78
2022/08/01 07:17:27;;;;;;;0.95;0.40;;;13.80;99.90;;;;;;5054963;28;20033;-75
2022/08/01 07:19:54;;;;;;;1.42;0.90;;;13.70;99.90;;;;;;5054999;28;20028;-73
2022/08/01 07:22:22;;;;;;;23.73;14.20;;;13.60;99.90;;;;;;5054991;28;20027;-76
2022/08/01 07:24:49;;;;;;;24.95;14.75;;;13.60;99.90;;;;;;5054670;28;20021;-73
2022/08/01 07:27:16;;;;;;;10.68;7.70;;;13.50;99.90;;;;;;5054124;28;20033;-75
2022/08/01 07:29:44;;;;;;;18.73;13.48;;;13.50;99.90;;;;;;5054762;28;20070;-78
2022/08/01 07:32:11;;;;;;;8.27;4.80;;;13.40;99.90;;;;;;5054743;28;20066;-78
2022/08/01 07:34:38;;;;;;;51.65;33.78;;;13.40;99.90;;;;;;5055565;28;20041;-73
2022/08/01 07:37:06;;;;;;;25.15;17.33;;;13.30;99.90;;;;;;5054196;28;20043;-73
2022/08/01 07:39:33;;;;;;;14.10;10.98;;;13.20;99.90;;;;;;5052907;28;20216;-74
2022/08/01 07:42:00;;;;;;;6.05;3.60;;;13.20;99.90;;;;;;5069810;28;20428;-75
2022/08/01 07:44:28;;;;;;;4.25;2.38;;;13.20;99.90;;;;;;5072053;28;20024;-74
2022/08/01 07:46:55;;;;;;;2.03;0.98;;;13.10;99.90;;;;;;5063805;28;20108;-73
2022/08/01 07:49:22;;;;;;;0.30;0.30;;;13.10;99.90;;;;;;5056504;28;20465;-77
2022/08/01 07:51:50;;;;;;;3.38;0.70;;;13.00;99.90;;;;;;5053763;28;20109;-77
2022/08/01 07:54:17;;;;;;;2.33;1.83;;;13.00;99.90;;;;;;5061756;28;20078;-76
2022/08/01 07:56:44;;;;;;;2.33;1.48;;;13.00;99.90;;;;;;5067124;28;20032;-74
2022/08/01 07:59:12;;;;;;;3.55;0.80;;;13.00;99.90;;;;;;5044622;28;20029;-78
2022/08/01 08:01:39;;;;;;;0.95;0.70;;;12.90;99.90;;;;;;5037895;28;20112;-74
2022/08/01 08:04:06;;;;;;;3.13;0.93;;;12.90;99.90;;;;;;5034164;28;20038;-76
2022/08/01 08:06:34;;;;;;;5.88;0.68;;;12.90;99.90;;;;;;5036259;28;20029;-74
2022/08/01 08:09:01;;;;;;;1.15;0.57;;;12.80;99.90;;;;;;5037805;28;20524;-77
2022/08/01 08:11:28;;;;;;;1.05;0.68;;;12.80;99.90;;;;;;5034819;28;20475;-74
2022/08/01 08:13:56;;;;;;;0.93;0.50;;;12.80;99.90;;;;;;5035749;28;20017;-78
2022/08/01 08:16:23;;;;;;;1.17;0.80;;;12.80;99.90;;;;;;5032530;28;20041;-73
2022/08/01 08:18:51;;;;;;;1.30;0.40;;;12.70;99.90;;;;;;5033014;28;20409;-73
2022/08/01 08:21:18;;;;;;;1.00;0.70;;;12.70;99.90;;;;;;5047562;28;20029;-74
2022/08/01 08:26:31;;;;;;;1.33;0.85;;;12.70;99.90;;;;;;5034166;28;20113;-79
2022/08/01 08:28:58;;;;;;;2.33;0.90;;;12.70;99.90;;;;;;5034845;28;20021;-78
2022/08/01 08:31:25;;;;;;;1.90;0.75;;;12.70;99.90;;;;;;5035265;28;20048;-73
2022/08/01 08:33:53;;;;;;;1.15;0.52;;;12.60;99.90;;;;;;5033121;28;20021;-77
2022/08/01 08:36:20;;;;;;;0.73;0.45;;;12.60;99.90;;;;;;5035285;28;20061;-73
2022/08/01 08:38:48;;;;;;;1.45;0.65;;;12.50;99.90;;;;;;5033980;28;20116;-77
2022/08/01 08:41:15;;;;;;;3.03;0.57;;;12.50;99.90;;;;;;5034856;28;20055;-78
2022/08/01 08:43:42;;;;;;;1.08;0.80;;;12.50;99.90;;;;;;5034911;28;20104;-73
2022/08/01 08:46:12;;;;;;;1.38;0.98;;;12.40;99.90;;;;;;5034994;28;20017;-74
2022/08/01 08:48:42;;;;;;;7.35;3.70;;;12.40;99.90;;;;;;5034048;28;20013;-74
2022/08/01 08:51:11;;;;;;;8.98;2.90;;;12.30;99.90;;;;;;5033516;28;20024;-73
2022/08/01 08:53:44;;;;;;;4.35;2.55;;;12.30;99.90;;;;;;5035875;28;20079;-74
2022/08/01 08:56:15;;;;;;;3.17;2.88;;;12.20;99.90;;;;;;5034679;28;20048;-74
2022/08/01 08:58:46;;;;;;;1.95;0.75;;;12.20;99.90;;;;;;5035312;28;20029;-73
2022/08/01 09:01:14;;;;;;;1.00;0.60;;;12.20;99.90;;;;;;5033776;28;20029;-73
2022/08/01 09:03:42;;;;;;;2.10;1.17;;;12.20;99.90;;;;;;5032856;28;20046;-78
2022/08/01 09:06:11;;;;;;;0.95;0.50;;;12.10;99.90;;;;;;5033273;28;20021;-76
2022/08/01 09:08:38;;;;;;;1.17;0.85;;;12.10;99.90;;;;;;5035013;28;20478;-74
2022/08/01 09:11:06;;;;;;;1.02;0.80;;;12.10;99.90;;;;;;5049436;28;20044;-73
2022/08/01 09:13:34;;;;;;;1.35;0.80;;;12.20;99.90;;;;;;5034880;28;20040;-78
2022/08/01 09:16:01;;;;;;;0.80;0.60;;;12.10;99.90;;;;;;5032850;28;20100;-77
2022/08/01 09:18:42;;;;;;;0.85;0.50;;;12.20;99.90;;;;;;5032532;28;20028;-73
2022/08/01 09:21:16;;;;;;;3.30;0.50;;;12.20;99.90;;;;;;5040961;28;20474;-73
2022/08/01 09:23:49;;;;;;;1.40;0.82;;;12.20;99.90;;;;;;5050125;28;20021;-77
2022/08/01 09:26:20;;;;;;;1.13;0.50;;;12.10;99.90;;;;;;5050444;28;20064;-76
2022/08/01 09:28:48;;;;;;;1.38;0.57;;;12.10;99.90;;;;;;5040964;28;20052;-78
2022/08/01 09:31:18;;;;;;;0.93;0.55;;;12.10;99.90;;;;;;5035049;28;20079;-72
2022/08/01 09:34:03;;;;;;;0.73;0.57;;;12.10;99.90;;;;;;5034762;28;20041;-77
2022/08/01 09:36:48;;;;;;;0.50;0.40;;;12.10;99.90;;;;;;5032725;28;20111;-76
2022/08/01 09:39:16;;;;;;;1.27;0.65;;;12.10;99.90;;;;;;5032274;28;20065;-74
2022/08/01 09:41:44;;;;;;;3.42;0.63;;;12.10;99.90;;;;;;5036277;28;20077;-77
2022/08/01 09:44:12;;;;;;;1.02;0.50;;;12.10;99.90;;;;;;5033586;28;20036;-73
2022/08/01 09:46:53;;;;;;;0.55;0.47;;;12.10;99.90;;;;;;5035793;28;20079;-76
2022/08/01 09:49:34;;;;;;;0.88;0.60;;;12.00;99.90;;;;;;5033948;28;20033;-72
2022/08/01 09:52:12;;;;;;;2.90;0.60;;;12.00;99.90;;;;;;5033079;28;20025;-75
2022/08/01 09:54:41;;;;;;;0.80;0.60;;;12.00;99.90;;;;;;5027158;28;20374;-77
2022/08/01 09:57:17;;;;;;;0.68;0.50;;;11.90;99.90;;;;;;5034874;28;20039;-78
2022/08/01 09:59:47;;;;;;;0.82;0.57;;;11.90;99.90;;;;;;5033392;28;20021;-76
2022/08/01 10:02:35;;;;;;;0.95;0.55;;;11.80;99.90;;;;;;5032915;28;20033;-77
2022/08/01 10:05:06;;;;;;;1.33;0.52;;;11.80;99.90;;;;;;5033345;28;20064;-73
2022/08/01 10:07:34;;;;;;;0.90;0.60;;;11.70;99.90;;;;;;5033078;28;20024;-72
2022/08/01 10:10:16;;;;;;;1.02;0.77;;;11.70;99.90;;;;;;5031371;28;20018;-72
2022/08/01 10:12:44;;;;;;;1.75;0.75;;;11.60;99.90;;;;;;5031355;28;20022;-76
2022/08/01 10:15:15;;;;;;;1.10;0.95;;;11.60;99.90;;;;;;5045971;28;20033;-76
2022/08/01 10:17:56;;;;;;;1.50;0.95;;;11.60;99.90;;;;;;5034119;28;20033;-76
2022/08/01 10:20:26;;;;;;;2.30;0.75;;;11.50;99.90;;;;;;5033779;28;20100;-76
2022/08/01 10:22:55;;;;;;;1.80;1.02;;;11.50;99.90;;;;;;5034929;28;20467;-76
2022/08/01 10:25:24;;;;;;;2.55;1.10;;;11.50;99.90;;;;;;5032471;28;20049;-77
2022/08/01 10:27:57;;;;;;;1.17;0.85;;;11.50;99.90;;;;;;5032341;28;20032;-77
2022/08/01 10:30:25;;;;;;;1.15;0.60;;;11.40;99.90;;;;;;5030531;28;20033;-77
2022/08/01 10:32:53;;;;;;;0.65;0.55;;;11.40;99.90;;;;;;5036950;28;20032;-76
2022/08/01 10:35:21;;;;;;;0.80;0.50;;;11.40;99.90;;;;;;5050351;28;20103;-77
2022/08/01 10:37:51;;;;;;;3.95;1.05;;;11.30;99.90;;;;;;5050092;28;20043;-72
2022/08/01 10:40:20;;;;;;;1.17;0.65;;;11.30;99.90;;;;;;5050642;28;20576;-73
2022/08/01 10:42:47;;;;;;;0.68;0.68;;;11.20;99.90;;;;;;5050471;28;20043;-76
2022/08/01 10:45:17;;;;;;;1.52;0.50;;;11.20;99.90;;;;;;5047948;28;20457;-76
2022/08/01 10:48:18;;;;;;;1.65;0.90;;;11.20;99.90;;;;;;5048925;28;20029;-74
2022/08/01 10:50:53;;;;;;;1.15;0.82;;;11.20;99.90;;;;;;5049154;28;20025;-73
2022/08/01 10:53:23;;;;;;;2.38;1.35;;;11.20;99.90;;;;;;5050069;28;20017;-73
2022/08/01 10:55:52;;;;;;;1.75;0.80;;;11.20;99.90;;;;;;5049922;28;20031;-74
2022/08/01 10:58:32;;;;;;;2.42;0.93;;;11.20;99.90;;;;;;5049609;28;20539;-73
2022/08/01 11:01:15;;;;;;;0.93;0.32;;;11.20;99.90;;;;;;5047524;28;20024;-73
2022/08/01 11:03:57;;;;;;;1.30;0.60;;;11.30;99.90;;;;;;5051346;28;20052;-77
2022/08/01 11:06:46;;;;;;;1.65;0.68;;;11.30;99.90;;;;;;5053308;28;20035;-74
2022/08/01 11:09:31;;;;;;;0.88;0.43;;;11.30;99.90;;;;;;5022313;28;20482;-73
2022/08/01 11:12:02;;;;;;;0.73;0.50;;;11.20;99.90;;;;;;5053242;28;20025;-73
2022/08/01 11:14:30;;;;;;;1.55;0.52;;;11.20;99.90;;;;;;5054063;28;20023;-72
2022/08/01 11:17:17;;;;;;;1.00;0.60;;;11.10;99.90;;;;;;5054661;28;20442;-73
2022/08/01 11:20:07;;;;;;;1.38;0.63;;;11.10;99.90;;;;;;5054754;28;20032;-73
2022/08/01 11:23:00;;;;;;;1.60;0.70;;;11.10;99.90;;;;;;5052541;28;20020;-72
2022/08/01 11:25:38;;;;;;;0.50;0.50;;;11.00;99.90;;;;;;5051551;28;20100;-74
2022/08/01 11:28:18;;;;;;;0.70;0.50;;;10.90;99.90;;;;;;5054754;28;20029;-76
2022/08/01 11:30:50;;;;;;;2.63;0.50;;;10.90;99.90;;;;;;5051208;28;20036;-73
2022/08/01 11:33:39;;;;;;;1.92;0.55;;;10.90;99.90;;;;;;5035900;28;20566;-75
2022/08/01 11:36:12;;;;;;;2.17;0.70;;;10.90;99.90;;;;;;5036001;28;20552;-73
2022/08/01 11:38:42;;;;;;;0.73;0.57;;;10.80;99.90;;;;;;5036664;28;20024;-73
2022/08/01 11:41:30;;;;;;;1.30;0.52;;;10.80;99.90;;;;;;5051741;28;20079;-72
2022/08/01 11:43:58;;;;;;;1.00;0.40;;;10.80;99.90;;;;;;5037591;28;20399;-77
2022/08/01 11:46:56;;;;;;;0.52;0.50;;;10.80;99.90;;;;;;5035451;28;20116;-73
2022/08/01 11:49:33;;;;;;;1.17;0.60;;;10.70;99.90;;;;;;5034374;28;20025;-72
2022/08/01 11:52:12;;;;;;;1.05;0.40;;;10.70;99.90;;;;;;5049886;28;20421;-76
2022/08/01 11:54:44;;;;;;;1.25;0.55;;;10.70;99.90;;;;;;5038546;28;20024;-72
2022/08/01 11:57:13;;;;;;;2.47;0.93;;;10.70;99.90;;;;;;5052703;28;20026;-73
2022/08/01 11:59:51;;;;;;;0.88;0.50;;;10.70;99.90;;;;;;5048336;28;20482;-72
2022/08/01 12:02:31;;;;;;;1.70;0.57;;;10.60;99.90;;;;;;5050163;28;20513;-72
2022/08/01 12:05:14;;;;;;;0.40;0.40;;;10.60;99.90;;;;;;5051616;28;20079;-74
2022/08/01 12:07:44;;;;;;;0.95;0.70;;;10.60;99.90;;;;;;5051012;28;20021;-73
2022/08/01 12:10:14;;;;;;;2.25;0.63;;;10.60;99.90;;;;;;5052669;28;20383;-73
2022/08/01 12:12:53;;;;;;;2.13;0.60;;;10.60;99.90;;;;;;5050561;28;20033;-73
2022/08/01 12:15:23;;;;;;;2.20;0.73;;;10.60;99.90;;;;;;5054006;28;20082;-73
2022/08/01 12:17:59;;;;;;;0.90;0.70;;;10.60;99.90;;;;;;5053167;28;20098;-75
2022/08/01 12:20:32;;;;;;;2.20;0.93;;;10.50;99.90;;;;;;5053721;28;20031;-72
2022/08/01 12:23:14;;;;;;;1.67;0.80;;;10.50;99.90;;;;;;5055082;28;20027;-77
2022/08/01 12:25:48;;;;;;;2.78;1.20;;;10.50;99.90;;;;;;5053297;28;20025;-74
2022/08/01 12:28:17;;;;;;;3.55;0.60;;;10.40;99.90;;;;;;5054422;28;20401;-76
2022/08/01 12:30:49;;;;;;;1.15;0.80;;;10.40;99.90;;;;;;5053071;28;20028;-71
2022/08/01 12:33:21;;;;;;;1.17;0.70;;;10.30;99.90;;;;;;5052481;28;20078;-72
2022/08/01 12:35:49;;;;;;;2.50;0.70;;;10.20;99.90;;;;;;5053279;28;20028;-72
2022/08/01 12:38:21;;;;;;;0.70;0.50;;;10.10;99.90;;;;;;5053784;28;20469;-71
2022/08/01 12:40:49;;;;;;;1.98;0.75;;;10.10;99.90;;;;;;5053543;28;20040;-72
2022/08/01 12:43:19;;;;;;;0.90;0.60;;;10.00;99.90;;;;;;5053780;28;20528;-72
2022/08/01 12:45:49;;;;;;;1.45;0.90;;;10.00;99.90;;;;;;5052951;28;20029;-73
2022/08/01 12:48:19;;;;;;;1.45;0.85;;;9.90;99.90;;;;;;5052973;28;20025;-72
2022/08/01 12:50:52;;;;;;;1.60;0.70;;;9.90;99.90;;;;;;5050648;28;20397;-76
2022/08/01 12:53:20;;;;;;;1.08;0.73;;;9.90;99.90;;;;;;5053911;28;20481;-76
2022/08/01 12:55:54;;;;;;;2.28;0.75;;;9.90;99.90;;;;;;5053625;28;20433;-72
2022/08/01 12:58:21;;;;;;;1.60;1.00;;;9.90;99.90;;;;;;5053685;28;20389;-73
2022/08/01 13:00:50;;;;;;;3.20;0.80;;;9.90;99.90;;;;;;5053574;28;20096;-73
2022/08/01 13:03:20;;;;;;;1.00;0.70;;;9.90;99.90;;;;;;5053490;28;20041;-76
2022/08/01 13:05:54;;;;;;;1.90;0.98;;;9.80;99.90;;;;;;5051377;28;20013;-72
2022/08/01 13:08:22;;;;;;;1.17;0.90;;;9.80;99.90;;;;;;5053617;28;20496;-73
2022/08/01 13:10:51;;;;;;;1.80;0.73;;;9.80;99.90;;;;;;5053665;28;20017;-74
2022/08/01 13:13:20;;;;;;;2.08;0.90;;;9.80;99.90;;;;;;5053497;28;20024;-76